createdAt,value
2024-01-09T00:00:15.766Z,1.15
2024-01-09T00:03:07.295Z,1.17
2024-01-09T00:05:40.162Z,1.02
2024-01-09T00:08:17.252Z,0.98
2024-01-09T00:10:50.206Z,1.10
2024-01-09T00:13:25.886Z,1.05
2024-01-09T00:15:58.913Z,1.02
2024-01-09T00:18:31.778Z,1.15
2024-01-09T00:21:16.370Z,1.08
2024-01-09T00:26:25.064Z,1.08
2024-01-09T00:28:57.872Z,1.05
2024-01-09T00:31:30.654Z,1.10
2024-01-09T00:34:24.855Z,1.27
2024-01-09T00:36:57.545Z,1.23
2024-01-09T00:39:30.266Z,1.17
2024-01-09T00:42:12.191Z,1.08
2024-01-09T00:44:45.908Z,0.93
2024-01-09T00:47:18.991Z,0.90
2024-01-09T00:49:51.694Z,1.00
2024-01-09T00:52:39.390Z,1.08
2024-01-09T00:55:13.285Z,1.10
2024-01-09T00:57:51.404Z,0.95
2024-01-09T01:00:27.291Z,1.15
2024-01-09T01:05:47.425Z,1.10
2024-01-09T01:08:20.239Z,1.30
2024-01-09T01:11:02.320Z,1.10
2024-01-09T01:13:45.619Z,1.08
2024-01-09T01:16:18.319Z,1.25
2024-01-09T01:18:53.671Z,1.10
2024-01-09T01:21:26.661Z,1.15
2024-01-09T01:23:59.377Z,1.00
2024-01-09T01:26:33.401Z,1.02
2024-01-09T01:29:06.130Z,1.27
2024-01-09T01:31:42.325Z,1.17
2024-01-09T01:34:15.117Z,1.20
2024-01-09T01:36:47.864Z,1.20
2024-01-09T01:39:20.652Z,1.02
2024-01-09T01:41:53.635Z,1.30
2024-01-09T01:44:41.808Z,1.08
2024-01-09T01:47:16.062Z,1.10
2024-01-09T01:52:22.156Z,1.10
2024-01-09T01:54:54.981Z,1.30
2024-01-09T01:57:28.106Z,1.15
2024-01-09T02:00:00.846Z,1.08
2024-01-09T02:02:37.293Z,1.20
2024-01-09T02:05:10.443Z,1.30
2024-01-09T02:07:48.165Z,1.20
2024-01-09T02:10:32.955Z,1.27
2024-01-09T02:13:05.730Z,1.00
2024-01-09T02:15:38.470Z,1.10
2024-01-09T02:18:11.386Z,1.20
2024-01-09T02:20:44.195Z,1.00
2024-01-09T02:23:16.962Z,1.13
2024-01-09T02:25:52.184Z,1.00
2024-01-09T02:28:30.108Z,1.00
2024-01-09T02:31:03.036Z,0.90
2024-01-09T02:33:38.142Z,0.98
2024-01-09T02:36:11.112Z,1.27
2024-01-09T02:38:58.164Z,1.10
2024-01-09T02:41:48.223Z,1.00
2024-01-09T02:44:21.178Z,1.27
2024-01-09T02:46:54.034Z,1.10
2024-01-09T02:49:36.849Z,1.30
2024-01-09T02:52:09.586Z,1.00
2024-01-09T02:54:42.230Z,1.10
2024-01-09T02:57:16.597Z,1.08
2024-01-09T02:59:49.333Z,0.95
2024-01-09T03:02:22.179Z,1.10
2024-01-09T03:04:54.821Z,1.02
2024-01-09T03:07:27.742Z,0.90
2024-01-09T03:10:05.234Z,1.10
2024-01-09T03:12:50.343Z,1.05
2024-01-09T03:15:23.390Z,1.10
2024-01-09T03:17:56.798Z,1.10
2024-01-09T03:20:32.237Z,1.27
2024-01-09T03:23:05.001Z,1.00
2024-01-09T03:25:37.751Z,1.10
2024-01-09T03:28:10.413Z,1.20
2024-01-09T03:31:45.412Z,1.02
2024-01-09T03:34:22.436Z,0.90
2024-01-09T03:41:16.230Z,1.15
2024-01-09T03:44:04.334Z,1.20
2024-01-09T03:49:37.818Z,1.17
2024-01-09T03:52:22.195Z,1.38
2024-01-09T03:54:57.963Z,1.20
2024-01-09T03:57:30.727Z,1.23
2024-01-09T04:00:10.020Z,1.20
2024-01-09T04:02:42.969Z,1.10
2024-01-09T04:05:16.041Z,1.10
2024-01-09T04:07:48.985Z,1.13
2024-01-09T04:10:21.726Z,1.48
2024-01-09T04:12:54.553Z,1.40
2024-01-09T04:15:27.329Z,1.20
2024-01-09T04:18:04.041Z,1.38
2024-01-09T04:20:37.063Z,1.30
2024-01-09T04:23:18.846Z,1.08
2024-01-09T04:25:51.700Z,1.20
2024-01-09T04:28:24.436Z,1.15
2024-01-09T04:30:57.624Z,0.90
2024-01-09T04:33:30.726Z,1.35
2024-01-09T04:36:03.737Z,1.17
2024-01-09T04:38:36.530Z,1.10
2024-01-09T04:41:09.362Z,1.00
2024-01-09T04:43:47.297Z,1.10
2024-01-09T04:46:26.476Z,1.10
2024-01-09T04:48:59.553Z,1.25
2024-01-09T04:51:33.829Z,1.00
2024-01-09T04:56:55.752Z,1.17
2024-01-09T04:59:31.872Z,1.25
2024-01-09T05:02:04.714Z,1.20
2024-01-09T05:04:37.454Z,1.10
2024-01-09T05:07:10.242Z,1.10
2024-01-09T05:09:42.948Z,1.25
2024-01-09T05:12:15.685Z,1.25
2024-01-09T05:14:48.620Z,1.10
2024-01-09T05:17:21.365Z,1.23
2024-01-09T05:20:03.138Z,1.10
2024-01-09T05:22:36.611Z,1.27
2024-01-09T05:25:09.559Z,1.03
2024-01-09T05:27:42.310Z,1.10
2024-01-09T05:30:15.469Z,1.10
2024-01-09T05:32:48.413Z,1.20
2024-01-09T05:35:21.323Z,1.13
2024-01-09T05:38:05.057Z,1.13
2024-01-09T05:40:52.932Z,1.30
2024-01-09T05:43:25.791Z,1.10
2024-01-09T05:46:03.922Z,1.13
2024-01-09T05:48:36.781Z,1.30
2024-01-09T05:51:10.474Z,1.30
2024-01-09T05:53:43.198Z,1.25
2024-01-09T05:56:15.983Z,1.13
2024-01-09T05:58:51.375Z,1.20
2024-01-09T06:01:27.496Z,0.95
2024-01-09T06:04:00.357Z,1.35
2024-01-09T06:06:33.374Z,1.38
2024-01-09T06:09:07.106Z,1.17
2024-01-09T06:11:39.889Z,1.42
2024-01-09T06:14:12.731Z,1.10
2024-01-09T06:16:45.562Z,1.30
2024-01-09T06:19:18.972Z,1.10
2024-01-09T06:21:51.882Z,1.10
2024-01-09T06:24:24.829Z,1.25
2024-01-09T06:27:00.198Z,1.10
2024-01-09T06:29:33.076Z,1.20
2024-01-09T06:32:06.757Z,1.08
2024-01-09T06:34:39.530Z,1.25
2024-01-09T06:37:12.336Z,1.20
2024-01-09T06:39:45.124Z,1.00
2024-01-09T06:42:17.818Z,1.20
2024-01-09T06:44:50.632Z,1.08
2024-01-09T06:47:23.782Z,1.30
2024-01-09T06:49:56.686Z,1.20
2024-01-09T06:52:29.358Z,1.15
2024-01-09T06:55:18.132Z,1.38
2024-01-09T06:57:53.478Z,1.25
2024-01-09T07:00:32.574Z,1.20
2024-01-09T07:03:05.834Z,1.30
2024-01-09T07:05:38.777Z,1.20
2024-01-09T07:08:11.877Z,1.30
2024-01-09T07:10:44.747Z,1.40
2024-01-09T07:13:36.138Z,1.20
2024-01-09T07:16:11.937Z,1.10
2024-01-09T07:18:44.894Z,1.13
2024-01-09T07:21:27.097Z,1.20
2024-01-09T07:24:03.228Z,1.23
2024-01-09T07:26:42.865Z,1.40
2024-01-09T07:29:21.307Z,1.33
2024-01-09T07:31:54.112Z,1.20
2024-01-09T07:34:27.003Z,1.20
2024-01-09T07:36:59.777Z,1.20
2024-01-09T07:39:33.344Z,1.15
2024-01-09T07:42:28.531Z,1.15
2024-01-09T07:45:01.779Z,1.30
2024-01-09T07:47:52.635Z,1.30
2024-01-09T07:50:28.310Z,1.00
2024-01-09T07:53:02.232Z,1.20
2024-01-09T07:55:45.820Z,1.20
2024-01-09T07:58:18.555Z,1.23
2024-01-09T08:00:52.713Z,1.13
2024-01-09T08:05:58.631Z,1.50
2024-01-09T08:08:31.649Z,1.17
2024-01-09T08:11:05.106Z,1.00
2024-01-09T08:13:41.404Z,1.20
2024-01-09T08:16:17.426Z,1.30
2024-01-09T08:21:39.923Z,1.20
2024-01-09T08:24:19.442Z,1.38
2024-01-09T08:26:52.216Z,1.52
2024-01-09T08:29:28.693Z,1.70
2024-01-09T08:32:01.496Z,1.30
2024-01-09T08:34:34.344Z,1.15
2024-01-09T08:37:07.137Z,1.40
2024-01-09T08:39:40.108Z,1.30
2024-01-09T08:42:12.827Z,1.27
2024-01-09T08:44:45.580Z,1.30
2024-01-09T08:47:18.312Z,1.30
2024-01-09T08:49:56.634Z,1.40
2024-01-09T08:52:29.382Z,1.50
2024-01-09T08:55:02.110Z,1.50
2024-01-09T08:57:34.783Z,1.42
2024-01-09T09:00:20.383Z,1.50
2024-01-09T09:02:53.381Z,1.70
2024-01-09T09:08:13.206Z,1.40
2024-01-09T09:10:46.022Z,1.20
2024-01-09T09:16:06.114Z,1.27
2024-01-09T09:18:56.931Z,1.42
2024-01-09T09:21:29.694Z,1.30
2024-01-09T09:24:02.478Z,1.67
2024-01-09T09:26:35.453Z,1.42
2024-01-09T09:29:22.458Z,1.52
2024-01-09T09:32:01.203Z,1.23
2024-01-09T09:34:33.964Z,1.60
2024-01-09T09:37:06.867Z,1.42
2024-01-09T09:39:39.767Z,1.40
2024-01-09T09:42:15.563Z,1.40
2024-01-09T09:44:54.042Z,1.30
2024-01-09T09:47:28.054Z,1.42
2024-01-09T09:50:00.904Z,1.50
2024-01-09T09:52:36.105Z,1.50
2024-01-09T09:55:11.952Z,1.60
2024-01-09T09:57:50.576Z,1.50
2024-01-09T10:00:23.206Z,1.42
2024-01-09T10:03:16.157Z,1.30
2024-01-09T10:05:53.842Z,1.50
2024-01-09T10:08:31.620Z,1.50
2024-01-09T10:11:04.651Z,1.60
2024-01-09T10:13:38.592Z,1.40
2024-01-09T10:16:12.037Z,1.40
2024-01-09T10:18:49.576Z,1.50
2024-01-09T10:21:24.121Z,1.67
2024-01-09T10:23:57.890Z,1.52
2024-01-09T10:26:30.958Z,1.75
2024-01-09T10:29:04.476Z,1.30
2024-01-09T10:31:38.395Z,1.33
2024-01-09T10:34:11.166Z,1.40
2024-01-09T10:36:44.041Z,1.30
2024-01-09T10:39:17.146Z,1.73
2024-01-09T10:41:49.842Z,1.63
2024-01-09T10:44:22.586Z,1.20
2024-01-09T10:46:56.032Z,1.40
2024-01-09T10:49:29.358Z,1.60
2024-01-09T10:52:05.488Z,1.40
2024-01-09T10:54:43.767Z,1.42
2024-01-09T10:57:18.169Z,1.50
2024-01-09T11:02:26.470Z,1.50
2024-01-09T11:04:59.360Z,1.30
2024-01-09T11:07:35.413Z,1.60
2024-01-09T11:10:10.042Z,1.88
2024-01-09T11:12:47.801Z,1.60
2024-01-09T11:15:29.872Z,1.38
2024-01-09T11:18:10.137Z,1.58
2024-01-09T11:20:43.593Z,1.55
2024-01-09T11:23:16.290Z,1.67
2024-01-09T11:25:52.241Z,1.33
2024-01-09T11:28:38.279Z,1.40
2024-01-09T11:31:18.349Z,1.20
2024-01-09T11:33:55.487Z,1.50
2024-01-09T11:36:30.996Z,1.33
2024-01-09T11:39:06.494Z,1.40
2024-01-09T11:41:39.444Z,1.50
2024-01-09T11:44:14.420Z,1.40
2024-01-09T11:46:49.171Z,1.50
2024-01-09T11:49:23.395Z,1.27
2024-01-09T11:52:02.586Z,1.50
2024-01-09T11:59:19.898Z,1.35
2024-01-09T12:01:53.277Z,1.40
2024-01-09T12:04:26.145Z,1.20
2024-01-09T12:07:40.790Z,1.20
2024-01-09T12:10:26.198Z,1.30
2024-01-09T12:13:06.277Z,1.40
2024-01-09T12:15:39.250Z,1.20
2024-01-09T12:18:12.348Z,1.52
2024-01-09T12:20:46.122Z,1.60
2024-01-09T12:23:20.704Z,1.20
2024-01-09T12:25:54.110Z,1.35
2024-01-09T12:28:26.798Z,1.30
2024-01-09T12:31:03.349Z,1.25
2024-01-09T12:33:37.649Z,1.33
2024-01-09T12:38:44.001Z,1.33
2024-01-09T12:41:22.909Z,1.60
2024-01-09T12:43:55.692Z,1.13
2024-01-09T12:46:31.137Z,1.38
2024-01-09T12:49:03.990Z,1.48
2024-01-09T12:51:37.169Z,1.30
2024-01-09T12:54:17.991Z,1.30
2024-01-09T12:56:50.884Z,1.20
2024-01-09T12:59:24.996Z,1.40
2024-01-09T13:04:31.664Z,1.33
2024-01-09T13:07:04.642Z,1.33
2024-01-09T13:09:39.174Z,1.30
2024-01-09T13:12:15.013Z,1.48
2024-01-09T13:15:00.928Z,1.38
2024-01-09T13:17:34.025Z,1.27
2024-01-09T13:20:08.647Z,1.45
2024-01-09T13:23:47.048Z,1.48
2024-01-09T13:25:34.132Z,1.25
2024-01-09T13:28:06.854Z,1.10
2024-01-09T13:30:49.193Z,1.73
2024-01-09T13:33:24.638Z,1.35
2024-01-09T13:35:57.607Z,1.20
2024-01-09T13:38:30.556Z,1.63
2024-01-09T13:41:23.650Z,1.30
2024-01-09T13:43:56.403Z,1.30
2024-01-09T13:46:30.195Z,1.25
2024-01-09T13:49:06.551Z,1.30
2024-01-09T13:51:51.472Z,1.15
2024-01-09T13:54:27.402Z,1.23
2024-01-09T13:57:00.106Z,1.25
2024-01-09T13:59:32.732Z,1.50
2024-01-09T14:02:05.482Z,1.40
2024-01-09T14:04:38.453Z,1.40
2024-01-09T14:07:11.110Z,1.33
2024-01-09T14:09:43.676Z,1.20
2024-01-09T14:12:16.330Z,1.40
2024-01-09T14:14:50.094Z,1.42
2024-01-09T14:17:24.096Z,1.45
2024-01-09T14:19:56.888Z,1.35
2024-01-09T14:22:29.729Z,1.30
2024-01-09T14:25:02.558Z,1.55
2024-01-09T14:27:35.663Z,1.67
2024-01-09T14:30:09.392Z,0.90
2024-01-09T14:32:42.056Z,1.02
2024-01-09T14:35:14.860Z,1.20
2024-01-09T14:37:47.724Z,1.40
2024-01-09T14:40:21.461Z,1.02
2024-01-09T14:42:54.043Z,1.40
2024-01-09T14:45:26.777Z,1.40
2024-01-09T14:47:59.704Z,1.50
2024-01-09T14:50:32.406Z,1.27
2024-01-09T14:53:05.346Z,1.60
2024-01-09T14:55:39.186Z,1.27
2024-01-09T14:58:12.908Z,1.40
2024-01-09T15:00:47.247Z,1.13
2024-01-09T15:03:19.826Z,1.27
2024-01-09T15:05:52.514Z,1.67
2024-01-09T15:08:25.557Z,1.40
2024-01-09T15:10:58.487Z,1.17
2024-01-09T15:13:31.331Z,1.40
2024-01-09T15:16:04.218Z,1.13
2024-01-09T15:18:37.165Z,1.23
2024-01-09T15:21:09.947Z,1.38
2024-01-09T15:23:42.667Z,1.23
2024-01-09T15:26:15.616Z,1.40
2024-01-09T15:28:48.273Z,1.10
2024-01-09T15:31:21.924Z,1.27
2024-01-09T15:33:54.821Z,1.30
2024-01-09T15:36:27.758Z,1.13
2024-01-09T15:39:01.265Z,1.30
2024-01-09T15:41:34.245Z,1.08
2024-01-09T15:44:10.575Z,1.35
2024-01-09T15:46:44.381Z,1.40
2024-01-09T15:49:17.260Z,1.20
2024-01-09T15:51:49.962Z,1.25
2024-01-09T15:54:23.604Z,1.17
2024-01-09T15:56:57.351Z,1.35
2024-01-09T15:59:30.890Z,1.25
2024-01-09T16:02:04.126Z,1.33
2024-01-09T16:04:40.420Z,1.38
2024-01-09T16:07:16.474Z,1.27
2024-01-09T16:09:49.140Z,1.42
2024-01-09T16:12:21.844Z,1.30
2024-01-09T16:14:54.804Z,1.27
2024-01-09T16:17:28.042Z,1.60
2024-01-09T16:20:00.808Z,1.30
2024-01-09T16:22:33.450Z,1.50
2024-01-09T16:25:09.800Z,1.30
2024-01-09T16:27:42.355Z,1.15
2024-01-09T16:30:15.253Z,1.33
2024-01-09T16:32:48.037Z,1.30
2024-01-09T16:35:20.997Z,1.30
2024-01-09T16:37:55.269Z,1.20
2024-01-09T16:43:00.809Z,1.45
2024-01-09T16:45:33.403Z,1.40
2024-01-09T16:48:06.727Z,1.38
2024-01-09T16:50:39.662Z,1.37
2024-01-09T16:53:12.854Z,1.40
2024-01-09T16:55:56.050Z,1.40
2024-01-09T16:58:28.938Z,1.50
2024-01-09T17:01:10.668Z,1.23
2024-01-09T17:03:43.308Z,1.35
2024-01-09T17:06:15.950Z,1.30
2024-01-09T17:08:48.813Z,1.20
2024-01-09T17:11:22.055Z,1.30
2024-01-09T17:13:55.656Z,1.23
2024-01-09T17:16:28.406Z,1.50
2024-01-09T17:19:01.706Z,1.27
2024-01-09T17:21:34.363Z,1.20
2024-01-09T17:24:07.392Z,1.25
2024-01-09T17:26:40.591Z,1.20
2024-01-09T17:29:13.214Z,1.20
2024-01-09T17:31:45.897Z,1.30
2024-01-09T17:34:18.622Z,1.35
2024-01-09T17:36:53.154Z,1.40
2024-01-09T17:39:26.611Z,1.30
2024-01-09T17:41:59.217Z,1.30
2024-01-09T17:47:27.146Z,1.30
2024-01-09T17:50:00.081Z,1.30
2024-01-09T17:52:33.056Z,1.30
2024-01-09T17:55:05.934Z,1.40
2024-01-09T17:57:38.970Z,1.58
2024-01-09T18:00:12.382Z,1.40
2024-01-09T18:02:44.973Z,1.40
2024-01-09T18:05:17.751Z,1.10
2024-01-09T18:07:50.622Z,1.27
2024-01-09T18:10:23.301Z,1.73
2024-01-09T18:12:55.887Z,1.40
2024-01-09T18:15:28.532Z,1.52
2024-01-09T18:18:01.128Z,1.50
2024-01-09T18:20:34.831Z,1.40
2024-01-09T18:23:07.514Z,1.50
2024-01-09T18:25:40.267Z,1.30
2024-01-09T18:28:14.282Z,1.48
2024-01-09T18:30:48.766Z,1.23
2024-01-09T18:33:21.418Z,1.50
2024-01-09T18:35:59.990Z,1.50
2024-01-09T18:38:32.585Z,1.63
2024-01-09T18:41:08.068Z,1.42
2024-01-09T18:43:40.741Z,1.60
2024-01-09T18:46:13.320Z,1.20
2024-01-09T18:48:45.845Z,1.50
2024-01-09T18:51:18.972Z,1.60
2024-01-09T18:53:56.713Z,1.65
2024-01-09T18:56:29.918Z,1.52
2024-01-09T18:59:02.875Z,1.70
2024-01-09T19:01:40.688Z,1.23
2024-01-09T19:04:16.148Z,1.60
2024-01-09T19:06:49.503Z,1.17
2024-01-09T19:09:23.474Z,1.70
2024-01-09T19:14:29.197Z,1.30
2024-01-09T19:17:01.823Z,1.60
2024-01-09T19:19:39.221Z,1.30
2024-01-09T19:22:11.894Z,1.85
2024-01-09T19:24:45.621Z,1.58
2024-01-09T19:27:18.360Z,1.33
2024-01-09T19:29:51.116Z,1.58
2024-01-09T19:32:25.344Z,1.52
2024-01-09T19:34:58.210Z,1.42
2024-01-09T19:37:30.865Z,1.63
2024-01-09T19:40:03.657Z,1.42
2024-01-09T19:42:36.279Z,1.50
2024-01-09T19:45:09.300Z,1.50
2024-01-09T19:47:44.596Z,1.52
2024-01-09T19:50:17.469Z,1.73
2024-01-09T19:52:52.481Z,1.40
2024-01-09T19:55:25.351Z,1.83
2024-01-09T19:57:58.191Z,1.60
2024-01-09T20:00:30.853Z,1.40
2024-01-09T20:03:03.554Z,1.55
2024-01-09T20:05:36.327Z,1.13
2024-01-09T20:08:09.285Z,1.67
2024-01-09T20:10:42.612Z,1.40
2024-01-09T20:13:15.223Z,1.50
2024-01-09T20:15:54.687Z,1.60
2024-01-09T20:18:27.501Z,1.40
2024-01-09T20:21:00.270Z,1.77
2024-01-09T20:23:34.876Z,1.92
2024-01-09T20:26:07.666Z,1.67
2024-01-09T20:28:40.534Z,1.98
2024-01-09T20:31:13.319Z,1.60
2024-01-09T20:33:46.270Z,1.75
2024-01-09T20:36:21.285Z,1.75
2024-01-09T20:38:54.027Z,1.60
2024-01-09T20:41:26.672Z,1.63
2024-01-09T20:49:44.253Z,1.60
2024-01-09T20:52:16.893Z,1.63
2024-01-09T20:54:53.293Z,1.60
2024-01-09T20:57:28.654Z,1.58
2024-01-09T21:00:01.235Z,1.70
2024-01-09T21:02:33.945Z,1.80
2024-01-09T21:05:06.918Z,1.75
2024-01-09T21:07:40.638Z,1.80
2024-01-09T21:10:13.497Z,1.63
2024-01-09T21:12:46.171Z,1.50
2024-01-09T21:15:21.263Z,1.45
2024-01-09T21:17:55.505Z,1.77
2024-01-09T21:20:28.110Z,1.92
2024-01-09T21:23:00.834Z,1.63
2024-01-09T21:25:34.788Z,1.67
2024-01-09T21:28:07.738Z,1.70
2024-01-09T21:30:40.800Z,1.42
2024-01-09T21:33:14.786Z,1.50
2024-01-09T21:35:47.617Z,1.60
2024-01-09T21:38:21.132Z,1.90
2024-01-09T21:40:59.022Z,1.60
2024-01-09T21:43:32.680Z,1.60
2024-01-09T21:46:07.020Z,1.50
2024-01-09T21:48:39.881Z,1.70
2024-01-09T21:51:12.558Z,1.33
2024-01-09T21:53:45.246Z,1.92
2024-01-09T21:56:18.088Z,1.77
2024-01-09T21:58:51.099Z,1.67
2024-01-09T22:01:23.748Z,1.80
2024-01-09T22:03:57.608Z,2.10
2024-01-09T22:06:30.223Z,1.60
2024-01-09T22:09:02.885Z,2.10
2024-01-09T22:11:41.180Z,1.90
2024-01-09T22:14:14.188Z,1.70
2024-01-09T22:16:46.866Z,1.85
2024-01-09T22:19:19.758Z,1.50
2024-01-09T22:21:53.802Z,1.83
2024-01-09T22:24:26.404Z,1.83
2024-01-09T22:26:59.123Z,2.00
2024-01-09T22:29:31.934Z,1.70
2024-01-09T22:32:05.932Z,1.45
2024-01-09T22:37:11.376Z,1.40
2024-01-09T22:39:45.057Z,1.58
2024-01-09T22:42:18.615Z,1.80
2024-01-09T22:44:51.611Z,1.67
2024-01-09T22:47:24.288Z,1.60
2024-01-09T22:49:57.032Z,2.10
2024-01-09T22:52:29.671Z,1.70
2024-01-09T22:55:04.053Z,1.48
2024-01-09T22:57:36.722Z,1.65
2024-01-09T23:00:22.817Z,1.70
2024-01-09T23:02:55.847Z,1.60
2024-01-09T23:05:29.486Z,1.85
2024-01-09T23:08:02.674Z,1.85
2024-01-09T23:10:35.562Z,1.40
2024-01-09T23:13:08.606Z,1.70
2024-01-09T23:15:42.354Z,1.42
2024-01-09T23:18:15.337Z,1.70
2024-01-09T23:20:48.064Z,1.80
2024-01-09T23:23:20.892Z,1.80
2024-01-09T23:25:54.879Z,1.50
2024-01-09T23:28:28.315Z,1.58
2024-01-09T23:31:01.422Z,1.60
2024-01-09T23:33:34.127Z,1.80
2024-01-09T23:36:08.960Z,1.80
2024-01-09T23:38:41.667Z,1.88
2024-01-09T23:41:22.832Z,1.55
2024-01-09T23:43:55.725Z,1.88
2024-01-09T23:46:28.367Z,1.48
2024-01-09T23:49:01.513Z,1.50
2024-01-09T23:51:34.409Z,1.60
2024-01-09T23:54:07.116Z,1.85
2024-01-09T23:56:41.191Z,1.40
2024-01-09T23:59:13.996Z,1.70
